createdAt,value
2022-10-30T00:01:22.879Z,11.43
2022-10-30T00:03:51.911Z,11.80
2022-10-30T00:06:19.008Z,10.73
2022-10-30T00:08:46.142Z,10.68
2022-10-30T00:11:14.150Z,10.05
2022-10-30T00:13:47.180Z,9.13
2022-10-30T00:16:14.364Z,9.75
2022-10-30T00:18:44.036Z,9.30
2022-10-30T00:21:16.454Z,9.35
2022-10-30T00:23:53.533Z,10.02
2022-10-30T00:26:22.588Z,9.80
2022-10-30T00:28:57.449Z,10.40
2022-10-30T00:31:24.638Z,9.40
2022-10-30T00:33:53.809Z,9.63
2022-10-30T00:36:31.823Z,9.73
2022-10-30T00:38:58.896Z,9.18
2022-10-30T00:41:26.216Z,8.98
2022-10-30T00:43:53.724Z,10.40
2022-10-30T00:46:38.436Z,9.80
2022-10-30T00:49:16.912Z,10.25
2022-10-30T00:51:52.574Z,9.00
2022-10-30T00:54:20.467Z,10.40
2022-10-30T00:56:50.358Z,9.57
2022-10-30T00:59:26.614Z,9.30
2022-10-30T01:01:54.699Z,9.50
2022-10-30T01:04:28.997Z,8.68
2022-10-30T01:06:58.742Z,9.23
2022-10-30T01:09:26.132Z,8.93
2022-10-30T01:11:53.342Z,9.15
2022-10-30T01:14:21.632Z,9.10
2022-10-30T01:17:17.074Z,10.00
2022-10-30T01:20:19.236Z,8.35
2022-10-30T01:22:58.886Z,8.80
2022-10-30T01:26:00.995Z,9.20
2022-10-30T01:28:54.860Z,8.00
2022-10-30T01:32:18.333Z,7.80
2022-10-30T01:35:05.079Z,8.77
2022-10-30T01:38:25.694Z,8.20
2022-10-30T01:40:53.087Z,8.60
2022-10-30T01:43:21.043Z,7.95
2022-10-30T01:46:22.953Z,9.05
2022-10-30T01:49:14.426Z,7.90
2022-10-30T01:52:22.315Z,8.25
2022-10-30T01:55:24.490Z,8.25
2022-10-30T01:58:00.178Z,8.73
2022-10-30T02:00:28.549Z,8.85
2022-10-30T02:02:56.201Z,8.88
2022-10-30T02:05:33.492Z,9.10
2022-10-30T02:08:02.210Z,10.00
2022-10-30T02:10:31.728Z,9.95
2022-10-30T02:12:58.931Z,9.30
2022-10-30T02:15:26.150Z,9.63
2022-10-30T02:17:54.837Z,9.55
2022-10-30T02:20:24.586Z,9.18
2022-10-30T02:22:54.586Z,8.70
2022-10-30T02:25:27.955Z,9.25
2022-10-30T02:27:55.173Z,8.63
2022-10-30T02:30:22.457Z,8.85
2022-10-30T02:32:52.545Z,8.30
2022-10-30T02:35:19.643Z,8.02
2022-10-30T02:37:49.870Z,8.70
2022-10-30T02:40:17.218Z,9.05
2022-10-30T02:42:44.618Z,8.35
2022-10-30T02:45:12.023Z,8.85
2022-10-30T02:47:39.242Z,9.05
2022-10-30T02:50:09.585Z,8.98
2022-10-30T02:52:36.693Z,8.57
2022-10-30T02:55:04.235Z,9.35
2022-10-30T02:57:33.881Z,9.27
2022-10-30T03:00:01.603Z,9.30
2022-10-30T03:02:28.717Z,8.95
2022-10-30T03:04:58.004Z,10.35
2022-10-30T03:07:25.170Z,9.80
2022-10-30T03:09:55.708Z,9.70
2022-10-30T03:12:25.354Z,9.50
2022-10-30T03:14:54.756Z,8.90
2022-10-30T03:17:24.451Z,9.30
2022-10-30T03:19:51.788Z,9.80
2022-10-30T03:22:19.052Z,9.38
2022-10-30T03:24:46.206Z,9.88
2022-10-30T03:27:13.413Z,10.02
2022-10-30T03:29:40.731Z,9.82
2022-10-30T03:32:11.849Z,9.80
2022-10-30T03:34:39.220Z,10.50
2022-10-30T03:37:09.047Z,9.88
2022-10-30T03:39:36.262Z,9.45
2022-10-30T03:42:06.066Z,9.10
2022-10-30T03:44:33.523Z,9.80
2022-10-30T03:47:00.737Z,9.70
2022-10-30T03:49:28.066Z,10.35
2022-10-30T03:51:57.516Z,8.93
2022-10-30T03:54:24.655Z,9.45
2022-10-30T03:56:54.297Z,9.23
2022-10-30T03:59:21.555Z,9.02
2022-10-30T04:01:49.021Z,9.10
2022-10-30T04:04:16.384Z,9.05
2022-10-30T04:06:47.672Z,8.52
2022-10-30T04:09:18.582Z,9.30
2022-10-30T04:11:46.033Z,9.63
2022-10-30T04:14:13.147Z,9.88
2022-10-30T04:16:40.228Z,10.93
2022-10-30T04:19:07.563Z,8.80
2022-10-30T04:21:34.729Z,8.73
2022-10-30T04:24:02.090Z,9.40
2022-10-30T04:26:38.748Z,9.20
2022-10-30T04:29:06.295Z,9.82
2022-10-30T04:31:33.344Z,9.85
2022-10-30T04:34:00.477Z,10.55
2022-10-30T04:36:34.012Z,9.68
2022-10-30T04:39:04.218Z,9.68
2022-10-30T04:41:31.561Z,9.43
2022-10-30T04:43:58.646Z,9.43
2022-10-30T04:46:25.685Z,9.30
2022-10-30T04:48:53.256Z,11.45
2022-10-30T04:51:20.479Z,10.30
2022-10-30T04:53:50.056Z,9.77
2022-10-30T04:56:17.141Z,9.40
2022-10-30T04:58:44.201Z,9.48
2022-10-30T05:01:14.051Z,10.18
2022-10-30T05:03:41.241Z,9.27
2022-10-30T05:06:22.061Z,9.68
2022-10-30T05:08:50.184Z,9.95
2022-10-30T05:11:18.327Z,9.35
2022-10-30T05:13:47.710Z,9.90
2022-10-30T05:16:14.835Z,9.65
2022-10-30T05:18:44.332Z,9.57
2022-10-30T05:21:11.448Z,9.90
2022-10-30T05:23:38.640Z,10.57
2022-10-30T05:26:08.297Z,10.50
2022-10-30T05:28:35.361Z,11.30
2022-10-30T05:31:02.629Z,11.00
2022-10-30T05:33:32.159Z,10.65
2022-10-30T05:35:59.388Z,10.90
2022-10-30T05:38:26.520Z,10.90
2022-10-30T05:40:53.638Z,10.70
2022-10-30T05:43:20.734Z,11.85
2022-10-30T05:45:50.130Z,11.55
2022-10-30T05:48:17.536Z,11.30
2022-10-30T05:50:44.864Z,11.15
2022-10-30T05:53:11.965Z,11.02
2022-10-30T05:55:39.069Z,10.70
2022-10-30T05:58:07.256Z,11.65
2022-10-30T06:00:36.971Z,10.90
2022-10-30T06:03:07.477Z,10.45
2022-10-30T06:05:39.624Z,10.35
2022-10-30T06:08:07.973Z,10.63
2022-10-30T06:10:37.985Z,10.00
2022-10-30T06:13:07.559Z,9.80
2022-10-30T06:15:34.840Z,9.60
2022-10-30T06:18:02.234Z,10.40
2022-10-30T06:20:31.141Z,9.85
2022-10-30T06:23:08.441Z,10.25
2022-10-30T06:25:41.123Z,10.13
2022-10-30T06:28:11.693Z,10.20
2022-10-30T06:30:38.943Z,10.15
2022-10-30T06:33:06.777Z,10.00
2022-10-30T06:35:33.930Z,10.35
2022-10-30T06:38:01.174Z,10.27
2022-10-30T06:40:30.295Z,10.30
2022-10-30T06:42:58.199Z,11.00
2022-10-30T06:45:25.768Z,13.70
2022-10-30T06:47:53.042Z,13.50
2022-10-30T06:50:22.290Z,14.10
2022-10-30T06:52:49.692Z,18.50
2022-10-30T06:55:17.544Z,18.17
2022-10-30T06:57:44.784Z,20.27
2022-10-30T07:00:13.278Z,21.00
2022-10-30T07:03:25.413Z,23.27
2022-10-30T07:05:52.917Z,23.33
2022-10-30T07:08:20.155Z,21.60
2022-10-30T07:10:49.942Z,20.92
2022-10-30T07:13:17.922Z,21.60
2022-10-30T07:15:45.172Z,20.55
2022-10-30T07:18:14.585Z,19.02
2022-10-30T07:20:41.703Z,19.25
2022-10-30T07:23:09.733Z,19.77
2022-10-30T07:25:40.929Z,19.00
2022-10-30T07:28:08.352Z,20.15
2022-10-30T07:30:35.810Z,23.05
2022-10-30T07:33:08.065Z,19.35
2022-10-30T07:35:39.050Z,20.33
2022-10-30T07:38:14.360Z,23.02
2022-10-30T07:40:41.486Z,24.55
2022-10-30T07:43:13.451Z,25.23
2022-10-30T07:45:40.663Z,24.58
2022-10-30T07:48:07.708Z,23.50
2022-10-30T07:50:37.241Z,22.02
2022-10-30T07:53:04.329Z,19.75
2022-10-30T07:55:31.476Z,18.67
2022-10-30T07:57:58.969Z,17.10
2022-10-30T08:00:26.345Z,15.75
2022-10-30T08:02:57.576Z,16.42
2022-10-30T08:05:29.057Z,16.75
2022-10-30T08:07:57.602Z,17.38
2022-10-30T08:10:25.159Z,16.00
2022-10-30T08:12:52.273Z,16.27
2022-10-30T08:15:19.436Z,15.98
2022-10-30T08:17:48.989Z,16.88
2022-10-30T08:20:19.607Z,16.70
2022-10-30T08:22:52.923Z,15.60
2022-10-30T08:25:22.441Z,16.73
2022-10-30T08:27:55.549Z,17.67
2022-10-30T08:30:25.174Z,17.42
2022-10-30T08:32:52.289Z,18.52
2022-10-30T08:35:20.273Z,17.20
2022-10-30T08:37:47.886Z,16.73
2022-10-30T08:40:15.091Z,16.87
2022-10-30T08:42:42.193Z,17.35
2022-10-30T08:45:09.725Z,16.73
2022-10-30T08:47:36.775Z,18.00
2022-10-30T08:50:04.145Z,20.95
2022-10-30T08:52:31.187Z,30.73
2022-10-30T08:54:58.253Z,17.05
2022-10-30T08:57:25.602Z,19.70
2022-10-30T08:59:55.077Z,18.92
2022-10-30T09:02:22.248Z,17.05
2022-10-30T09:04:51.595Z,16.02
2022-10-30T09:07:18.667Z,14.07
2022-10-30T09:09:48.280Z,14.57
2022-10-30T09:12:16.294Z,14.07
2022-10-30T09:14:43.370Z,14.65
2022-10-30T09:17:10.648Z,13.23
2022-10-30T09:19:38.169Z,11.13
2022-10-30T09:22:05.501Z,11.55
2022-10-30T09:24:32.526Z,9.93
2022-10-30T09:26:59.589Z,9.88
2022-10-30T09:29:26.714Z,9.30
2022-10-30T09:31:53.744Z,7.53
2022-10-30T09:34:20.856Z,5.60
2022-10-30T09:36:48.858Z,6.22
2022-10-30T09:39:16.420Z,6.47
2022-10-30T09:42:07.545Z,6.97
2022-10-30T09:45:15.171Z,5.50
2022-10-30T09:48:19.535Z,6.57
2022-10-30T09:51:29.472Z,7.45
2022-10-30T09:54:24.087Z,9.38
2022-10-30T09:57:04.883Z,6.10
2022-10-30T10:00:15.406Z,5.38
2022-10-30T10:03:27.623Z,5.00
2022-10-30T10:05:59.470Z,4.97
2022-10-30T10:08:46.569Z,5.28
2022-10-30T10:11:44.271Z,5.13
2022-10-30T10:14:18.923Z,4.38
2022-10-30T10:16:52.863Z,4.07
2022-10-30T10:19:30.846Z,3.95
2022-10-30T10:22:04.194Z,5.70
2022-10-30T10:24:38.912Z,6.22
2022-10-30T10:27:13.137Z,5.53
2022-10-30T10:29:53.926Z,5.47
2022-10-30T10:33:04.671Z,4.90
2022-10-30T10:35:42.205Z,3.78
2022-10-30T10:38:53.118Z,3.90
2022-10-30T10:41:51.057Z,4.22
2022-10-30T10:44:41.377Z,5.25
2022-10-30T10:47:35.611Z,4.20
2022-10-30T10:50:29.728Z,4.00
2022-10-30T10:53:20.686Z,4.68
2022-10-30T10:55:52.866Z,4.55
2022-10-30T11:01:39.026Z,3.88
2022-10-30T11:04:30.143Z,4.20
2022-10-30T11:07:02.779Z,4.88
2022-10-30T11:09:29.872Z,6.82
2022-10-30T11:11:59.464Z,5.55
2022-10-30T11:14:32.004Z,6.05
2022-10-30T11:17:29.131Z,5.07
2022-10-30T11:20:30.272Z,5.30
2022-10-30T11:22:57.810Z,7.40
2022-10-30T11:25:33.534Z,8.68
2022-10-30T11:28:04.538Z,9.63
2022-10-30T11:30:35.119Z,9.27
2022-10-30T11:33:23.365Z,8.63
2022-10-30T11:35:50.519Z,10.50
2022-10-30T11:38:21.421Z,9.18
2022-10-30T11:40:52.888Z,9.70
2022-10-30T11:43:24.405Z,11.32
2022-10-30T11:45:52.409Z,11.20
2022-10-30T11:48:34.009Z,11.80
2022-10-30T11:51:03.283Z,10.35
2022-10-30T11:53:47.830Z,10.50
2022-10-30T11:56:23.030Z,10.88
2022-10-30T11:59:12.883Z,11.32
2022-10-30T12:01:57.685Z,10.65
2022-10-30T12:04:28.172Z,12.38
2022-10-30T12:07:14.034Z,11.18
2022-10-30T12:09:47.215Z,11.88
2022-10-30T12:12:39.764Z,11.38
2022-10-30T12:15:15.867Z,11.45
2022-10-30T12:18:02.416Z,11.82
2022-10-30T12:20:30.147Z,13.85
2022-10-30T12:23:09.624Z,13.90
2022-10-30T12:25:37.645Z,13.52
2022-10-30T12:28:15.590Z,12.77
2022-10-30T12:31:15.162Z,12.30
2022-10-30T12:34:03.851Z,12.90
2022-10-30T12:36:40.368Z,12.10
2022-10-30T12:39:34.303Z,13.40
2022-10-30T12:42:18.040Z,12.13
2022-10-30T12:45:06.885Z,12.43
2022-10-30T12:48:02.674Z,12.10
2022-10-30T12:50:59.183Z,12.93
2022-10-30T12:53:34.459Z,13.68
2022-10-30T12:56:30.265Z,14.95
2022-10-30T12:59:23.057Z,14.15
2022-10-30T13:02:15.982Z,12.57
2022-10-30T13:04:52.197Z,13.00
2022-10-30T13:07:50.416Z,13.05
2022-10-30T13:10:58.319Z,12.63
2022-10-30T13:13:35.675Z,14.70
2022-10-30T13:16:08.685Z,13.68
2022-10-30T13:18:38.419Z,13.52
2022-10-30T13:21:11.415Z,13.63
2022-10-30T13:24:11.736Z,13.38
2022-10-30T13:26:48.510Z,14.45
2022-10-30T13:29:27.906Z,13.60
2022-10-30T13:32:17.371Z,14.60
2022-10-30T13:35:37.954Z,15.15
2022-10-30T13:38:19.940Z,14.60
2022-10-30T13:41:42.429Z,15.25
2022-10-30T13:44:32.189Z,15.20
2022-10-30T13:47:27.167Z,16.63
2022-10-30T13:50:15.655Z,15.40
2022-10-30T13:52:50.542Z,15.93
2022-10-30T13:55:31.423Z,15.27
2022-10-30T13:58:24.789Z,15.55
2022-10-30T14:01:30.403Z,16.83
2022-10-30T14:04:12.960Z,15.55
2022-10-30T14:06:51.551Z,16.38
2022-10-30T14:09:44.569Z,16.73
2022-10-30T14:12:48.964Z,15.93
2022-10-30T14:15:43.959Z,17.08
2022-10-30T14:18:14.001Z,17.08
2022-10-30T14:20:46.460Z,16.38
2022-10-30T14:23:36.262Z,16.27
2022-10-30T14:26:10.674Z,16.08
2022-10-30T14:28:47.438Z,16.40
2022-10-30T14:31:18.031Z,17.92
2022-10-30T14:33:52.315Z,20.45
2022-10-30T14:36:34.617Z,21.80
2022-10-30T14:39:13.421Z,17.90
2022-10-30T14:42:02.387Z,18.98
2022-10-30T14:44:52.201Z,18.38
2022-10-30T14:48:11.494Z,19.50
2022-10-30T14:51:25.211Z,18.05
2022-10-30T14:54:06.606Z,21.40
2022-10-30T14:56:51.102Z,20.77
2022-10-30T14:59:18.120Z,19.77
2022-10-30T15:02:04.082Z,23.48
2022-10-30T15:04:57.246Z,22.33
2022-10-30T15:07:50.019Z,18.25
2022-10-30T15:10:34.128Z,18.67
2022-10-30T15:13:10.624Z,19.17
2022-10-30T15:15:38.092Z,17.58
2022-10-30T15:18:15.946Z,18.98
2022-10-30T15:20:43.368Z,18.83
2022-10-30T15:23:19.423Z,19.73
2022-10-30T15:25:56.947Z,19.83
2022-10-30T15:28:30.515Z,17.95
2022-10-30T15:31:18.229Z,19.00
2022-10-30T15:33:47.653Z,20.55
2022-10-30T15:36:28.485Z,18.50
2022-10-30T15:39:14.998Z,20.13
2022-10-30T15:42:04.256Z,21.00
2022-10-30T15:44:37.855Z,20.55
2022-10-30T15:47:12.638Z,18.85
2022-10-30T15:49:54.453Z,20.05
2022-10-30T15:52:32.530Z,17.77
2022-10-30T15:55:10.112Z,18.45
2022-10-30T15:58:07.138Z,17.85
2022-10-30T16:00:37.640Z,17.60
2022-10-30T16:03:13.443Z,17.75
2022-10-30T16:05:43.119Z,22.00
2022-10-30T16:08:19.565Z,19.05
2022-10-30T16:10:47.625Z,20.75
2022-10-30T16:13:21.980Z,22.45
2022-10-30T16:15:50.419Z,21.42
2022-10-30T16:18:28.393Z,18.98
2022-10-30T16:21:02.543Z,19.60
2022-10-30T16:23:36.354Z,21.63
2022-10-30T16:26:03.636Z,26.98
2022-10-30T16:28:37.960Z,22.92
2022-10-30T16:31:15.389Z,22.63
2022-10-30T16:33:44.728Z,21.88
2022-10-30T16:36:18.394Z,23.73
2022-10-30T16:38:49.315Z,19.83
2022-10-30T16:41:22.700Z,23.30
2022-10-30T16:44:30.289Z,25.50
2022-10-30T16:47:16.904Z,22.92
2022-10-30T16:49:52.461Z,31.35
2022-10-30T16:52:27.510Z,24.42
2022-10-30T16:55:20.185Z,22.98
2022-10-30T16:57:57.375Z,26.45
2022-10-30T17:00:36.541Z,28.60
2022-10-30T17:03:11.787Z,32.90
2022-10-30T17:05:44.149Z,33.65
2022-10-30T17:08:17.152Z,32.30
2022-10-30T17:11:05.277Z,30.13
2022-10-30T17:13:38.249Z,32.53
2022-10-30T17:16:27.139Z,34.88
2022-10-30T17:18:58.096Z,32.83
2022-10-30T17:21:42.217Z,30.85
2022-10-30T17:24:29.648Z,30.50
2022-10-30T17:27:00.234Z,32.83
2022-10-30T17:29:42.407Z,28.08
2022-10-30T17:32:21.031Z,31.38
2022-10-30T17:35:00.145Z,29.85
2022-10-30T17:37:28.126Z,30.60
2022-10-30T17:39:55.227Z,29.65
2022-10-30T17:42:22.427Z,29.13
2022-10-30T17:44:49.701Z,30.77
2022-10-30T17:47:19.840Z,30.35
2022-10-30T17:49:49.615Z,34.58
2022-10-30T17:52:22.981Z,30.27
2022-10-30T17:54:50.299Z,30.45
2022-10-30T17:57:17.441Z,30.95
2022-10-30T17:59:44.666Z,30.55
2022-10-30T18:02:23.252Z,30.13
2022-10-30T18:04:54.968Z,31.63
2022-10-30T18:07:24.577Z,31.05
2022-10-30T18:09:51.609Z,32.80
2022-10-30T18:12:19.283Z,31.05
2022-10-30T18:14:46.432Z,28.77
2022-10-30T18:17:18.363Z,28.05
2022-10-30T18:19:45.422Z,28.50
2022-10-30T18:22:12.533Z,28.77
2022-10-30T18:24:42.878Z,25.90
2022-10-30T18:27:09.911Z,30.27
2022-10-30T18:29:36.980Z,28.73
2022-10-30T18:32:09.276Z,25.05
2022-10-30T18:34:36.713Z,26.00
2022-10-30T18:37:03.816Z,24.08
2022-10-30T18:39:33.358Z,25.42
2022-10-30T18:42:00.918Z,26.63
2022-10-30T18:44:27.960Z,26.48
2022-10-30T18:47:00.090Z,26.52
2022-10-30T18:49:32.060Z,25.58
2022-10-30T18:51:59.325Z,24.77
2022-10-30T18:54:27.063Z,27.73
2022-10-30T18:56:54.041Z,26.95
2022-10-30T18:59:21.140Z,27.85
2022-10-30T19:01:48.383Z,26.35
2022-10-30T19:04:20.835Z,25.63
2022-10-30T19:06:51.287Z,25.40
2022-10-30T19:09:20.564Z,27.23
2022-10-30T19:11:48.240Z,27.38
2022-10-30T19:14:18.436Z,29.13
2022-10-30T19:16:47.559Z,32.33
2022-10-30T19:19:15.101Z,34.75
2022-10-30T19:21:42.253Z,31.45
2022-10-30T19:24:20.282Z,30.77
2022-10-30T19:26:47.320Z,32.05
2022-10-30T19:29:14.634Z,29.42
2022-10-30T19:31:42.175Z,32.58
2022-10-30T19:34:09.264Z,31.58
2022-10-30T19:36:38.376Z,29.95
2022-10-30T19:39:16.738Z,27.35
2022-10-30T19:41:46.706Z,28.02
2022-10-30T19:44:13.792Z,26.80
2022-10-30T19:46:40.796Z,25.33
2022-10-30T19:49:22.943Z,25.73
2022-10-30T19:51:50.018Z,22.45
2022-10-30T19:54:17.151Z,22.52
2022-10-30T19:56:44.453Z,23.23
2022-10-30T19:59:14.973Z,21.40
2022-10-30T20:01:43.845Z,20.33
2022-10-30T20:04:14.132Z,21.08
2022-10-30T20:06:41.225Z,22.10
2022-10-30T20:09:15.251Z,25.15
2022-10-30T20:11:44.779Z,26.08
2022-10-30T20:14:12.030Z,26.95
2022-10-30T20:16:39.227Z,30.35
2022-10-30T20:19:41.645Z,29.17
2022-10-30T20:22:11.321Z,34.92
2022-10-30T20:24:38.429Z,35.58
2022-10-30T20:27:06.404Z,33.25
2022-10-30T20:29:36.941Z,34.35
2022-10-30T20:32:09.794Z,31.58
2022-10-30T20:34:36.866Z,29.92
2022-10-30T20:37:04.153Z,30.95
2022-10-30T20:39:33.760Z,28.65
2022-10-30T20:42:01.022Z,31.58
2022-10-30T20:44:28.112Z,31.05
2022-10-30T20:46:55.429Z,29.73
2022-10-30T20:49:25.083Z,28.20
2022-10-30T20:51:52.477Z,29.02
2022-10-30T20:54:19.701Z,31.10
2022-10-30T20:56:49.164Z,31.38
2022-10-30T20:59:16.416Z,30.80
2022-10-30T21:01:46.184Z,31.02
2022-10-30T21:04:13.867Z,29.05
2022-10-30T21:06:43.472Z,30.60
2022-10-30T21:09:10.828Z,26.75
2022-10-30T21:11:38.058Z,28.80
2022-10-30T21:14:05.396Z,28.10
2022-10-30T21:16:32.667Z,25.13
2022-10-30T21:19:00.027Z,23.92
2022-10-30T21:21:27.117Z,23.48
2022-10-30T21:23:55.418Z,21.52
2022-10-30T21:26:24.927Z,20.27
2022-10-30T21:28:52.231Z,19.52
2022-10-30T21:31:19.446Z,19.02
2022-10-30T21:33:47.315Z,18.30
2022-10-30T21:36:17.414Z,17.60
2022-10-30T21:38:47.209Z,18.05
2022-10-30T21:41:21.780Z,18.38
2022-10-30T21:43:51.707Z,18.98
2022-10-30T21:46:20.202Z,19.83
2022-10-30T21:48:47.427Z,20.90
2022-10-30T21:51:23.520Z,19.90
2022-10-30T21:53:51.479Z,21.23
2022-10-30T21:56:25.057Z,21.00
2022-10-30T21:58:53.101Z,20.67
2022-10-30T22:01:29.862Z,20.38
2022-10-30T22:04:02.955Z,19.70
2022-10-30T22:06:30.886Z,20.38
2022-10-30T22:09:01.163Z,20.15
2022-10-30T22:11:29.355Z,22.08
2022-10-30T22:14:02.395Z,21.75
2022-10-30T22:16:32.441Z,21.92
2022-10-30T22:19:00.709Z,20.13
2022-10-30T22:21:28.269Z,19.02
2022-10-30T22:23:55.665Z,20.00
2022-10-30T22:26:23.762Z,18.85
2022-10-30T22:28:58.308Z,19.40
2022-10-30T22:31:28.656Z,18.70
2022-10-30T22:33:56.313Z,16.80
2022-10-30T22:36:26.557Z,15.90
2022-10-30T22:38:58.387Z,16.48
2022-10-30T22:41:27.745Z,15.07
2022-10-30T22:43:57.452Z,15.18
2022-10-30T22:46:30.133Z,14.95
2022-10-30T22:49:00.192Z,14.43
2022-10-30T22:51:29.864Z,14.25
2022-10-30T22:54:01.392Z,14.70
2022-10-30T22:56:32.306Z,14.45
2022-10-30T22:59:03.505Z,14.88
2022-10-30T23:01:33.512Z,15.30
2022-10-30T23:04:02.777Z,15.45
2022-10-30T23:06:32.355Z,14.75
2022-10-30T23:09:02.615Z,15.20
2022-10-30T23:11:30.664Z,16.00
2022-10-30T23:13:57.869Z,17.30
2022-10-30T23:16:26.509Z,16.25
2022-10-30T23:18:59.118Z,16.88
2022-10-30T23:21:30.312Z,16.42
2022-10-30T23:23:58.070Z,17.58
2022-10-30T23:26:31.569Z,15.55
2022-10-30T23:29:00.492Z,16.13
2022-10-30T23:31:28.961Z,13.93
2022-10-30T23:34:00.296Z,13.88
2022-10-30T23:36:27.995Z,13.67
2022-10-30T23:38:58.161Z,14.55
2022-10-30T23:41:28.696Z,14.43
2022-10-30T23:43:58.292Z,13.50
2022-10-30T23:46:26.395Z,14.25
2022-10-30T23:48:53.682Z,13.75
2022-10-30T23:51:21.752Z,13.55
2022-10-30T23:53:49.255Z,14.32
2022-10-30T23:56:17.754Z,13.25
2022-10-30T23:58:49.832Z,13.25
